New Liskeard, Canada
Current Conditions -  °F | °C
As of 6:19 PM on Tuesday 25 Nov 2014 (Local Time) from CYXR Reporting Station
Light Snow Light Snow  
Wind Chill: 11°   Ceiling: 4000
Heat Index: 21°   Visibility: 6mi
Dew Point: 18°   Wind: 9mph
Humidity: 86%   Direction: 290°WNW
Pressure: 29.89"   Gusts: NA
Location:  47.5°N, 79.67°W
Report Text: CYXR 252319Z AUTO 29008KT 6SM -SN BKN040 OVC070 M06/M08 A2989 RMK ICG INTMT SLP139
Loading
Personal Weather Stations






























Interactive Weather Map New forecast layout! Learn more

10-Day Weather Forecast

Advertisements
Track Severe Weather on mobile